Time;durP1;ratioP1;P1;durP2;ratioP2;P2;SDS_P1;SDS_P2;PMS_P1;PMS_P2;Temp;Humidity;BMP_temperature;BMP_pressure;BME280_temperature;BME280_humidity;BME280_pressure;Samples;Min_cycle;Max_cycle;Signal;HPM_P1;HPM_P2
2022/06/04 00:01:46;;;;;;;6.53;4.70;;;;;;;16.62;85.74;99349.19;5065109;28;20037;-55
2022/06/04 00:04:12;;;;;;;12.40;4.57;;;;;;;16.62;85.56;99354.59;5070274;28;20501;-55
2022/06/04 00:06:37;;;;;;;7.13;4.95;;;;;;;16.59;86.10;99353.28;5041420;28;20036;-54
2022/06/04 00:09:05;;;;;;;7.65;5.43;;;;;;;16.65;85.71;99343.25;5065849;28;20068;-55
2022/06/04 00:16:58;;;;;;;6.30;4.78;;;;;;;16.52;85.64;99355.47;5054229;28;20161;-55
2022/06/04 00:19:24;;;;;;;7.82;5.07;;;;;;;16.24;88.00;99353.44;5069798;28;20054;-56
2022/06/04 00:21:50;;;;;;;9.77;5.40;;;;;;;16.14;88.09;99349.69;5043805;28;20028;-55
2022/06/04 00:24:16;;;;;;;7.63;5.07;;;;;;;16.19;87.46;99346.16;5067863;28;20048;-54
2022/06/04 00:26:41;;;;;;;7.47;5.10;;;;;;;16.23;87.17;99351.84;5069670;28;20068;-56
2022/06/04 00:29:09;;;;;;;6.68;5.40;;;;;;;16.29;86.14;99345.31;5068403;28;20386;-55
2022/06/04 00:31:36;;;;;;;8.98;5.03;;;;;;;16.20;86.94;99344.25;5064725;28;20033;-54
2022/06/04 00:34:03;;;;;;;8.23;5.60;;;;;;;15.99;88.16;99352.44;5068817;28;20059;-55
2022/06/04 00:36:28;;;;;;;11.35;5.82;;;;;;;15.97;89.31;99354.59;5047996;28;20501;-54
2022/06/04 00:38:53;;;;;;;7.30;5.85;;;;;;;15.98;89.27;99350.84;5067893;28;20032;-55
2022/06/04 00:41:35;;;;;;;7.60;5.90;;;;;;;15.77;90.42;99362.75;5068568;28;20032;-55
2022/06/04 00:44:02;;;;;;;10.38;6.30;;;;;;;15.74;91.19;99359.53;5044688;28;20128;-54
2022/06/04 00:46:39;;;;;;;8.55;6.28;;;;;;;15.73;91.04;99366.03;5067447;28;20078;-55
2022/06/04 00:49:05;;;;;;;11.48;5.90;;;;;;;15.74;90.05;99374.94;5069238;28;20040;-55
2022/06/04 00:51:30;;;;;;;7.55;5.50;;;;;;;15.77;89.86;99382.50;5041692;28;20028;-55
2022/06/04 00:53:56;;;;;;;8.30;5.82;;;;;;;15.67;90.11;99377.88;5032690;28;20478;-55
2022/06/04 00:56:52;;;;;;;8.32;5.65;;;;;;;15.26;93.61;99367.09;5067164;28;20281;-56
2022/06/04 00:59:38;;;;;;;7.43;5.68;;;;;;;15.37;93.23;99362.50;5067637;28;20028;-55
2022/06/04 01:02:30;;;;;;;9.10;5.68;;;;;;;15.44;91.75;99368.44;5052806;28;20078;-56
2022/06/04 01:05:05;;;;;;;11.30;6.70;;;;;;;15.35;92.85;99377.34;5044859;28;20055;-56
2022/06/04 01:07:39;;;;;;;9.25;6.32;;;;;;;15.36;93.17;99376.28;5064666;28;20541;-53
2022/06/04 01:10:39;;;;;;;8.80;6.72;;;;;;;15.42;93.64;99375.19;5067582;28;20398;-57
2022/06/04 01:13:22;;;;;;;9.75;6.80;;;;;;;15.45;92.82;99380.06;5060636;28;20020;-57
2022/06/04 01:16:06;;;;;;;9.80;7.25;;;;;;;15.50;92.21;99374.66;5067751;28;20048;-55
2022/06/04 01:18:50;;;;;;;11.43;6.55;;;;;;;15.36;93.06;99379.00;5067757;28;20117;-56
2022/06/04 01:21:21;;;;;;;11.52;6.35;;;;;;;15.34;92.80;99384.66;5046148;28;20458;-56
2022/06/04 01:24:08;;;;;;;14.35;6.88;;;;;;;15.32;93.03;99379.53;5067923;28;20028;-54
2022/06/04 01:26:36;;;;;;;6.75;6.00;;;;;;;15.36;92.58;99387.91;5068266;28;20033;-57
2022/06/04 01:29:12;;;;;;;10.63;6.78;;;;;;;15.39;92.13;99389.25;5067650;28;20096;-55
2022/06/04 01:32:09;;;;;;;9.25;5.80;;;;;;;15.32;91.23;99386.81;5067862;28;20128;-57
2022/06/04 01:34:40;;;;;;;9.77;6.63;;;;;;;15.29;92.42;99393.56;5042265;28;20144;-54
2022/06/04 01:37:38;;;;;;;7.75;6.20;;;;;;;15.13;93.81;99388.44;5067757;28;20021;-57
2022/06/04 01:42:49;;;;;;;10.35;5.97;;;;;;;15.25;92.00;99392.50;5053460;28;20307;-56
2022/06/04 01:45:16;;;;;;;7.88;6.30;;;;;;;15.21;91.46;99391.41;5049985;28;20059;-56
2022/06/04 01:47:42;;;;;;;10.85;7.05;;;;;;;15.17;91.41;99384.91;5033506;28;20017;-57
2022/06/04 01:50:10;;;;;;;7.88;5.78;;;;;;;15.05;91.24;99381.66;5024613;28;20040;-55
2022/06/04 01:52:37;;;;;;;9.57;5.68;;;;;;;15.10;91.50;99381.66;5021037;28;20076;-55
2022/06/04 01:55:19;;;;;;;10.77;6.30;;;;;;;14.92;93.07;99385.69;5029468;28;20029;-56
2022/06/04 01:58:02;;;;;;;10.70;6.18;;;;;;;15.04;92.77;99380.03;5062702;28;20582;-56
2022/06/04 02:00:31;;;;;;;9.93;6.65;;;;;;;15.04;92.28;99374.66;5048351;28;20554;-56
2022/06/04 02:03:05;;;;;;;7.75;6.07;;;;;;;15.01;91.22;99373.28;5035204;28;20056;-56
2022/06/04 02:05:34;;;;;;;9.05;6.07;;;;;;;14.96;90.53;99370.59;5053537;28;20032;-55
2022/06/04 02:08:00;;;;;;;7.65;5.53;;;;;;;14.83;89.11;99373.81;5067138;28;20048;-56
2022/06/04 02:10:44;;;;;;;7.88;5.57;;;;;;;14.70;89.63;99377.81;5066687;28;20092;-56
2022/06/04 02:13:11;;;;;;;9.95;5.53;;;;;;;14.69;90.62;99378.09;5054042;28;20036;-56
2022/06/04 02:15:40;;;;;;;7.28;6.13;;;;;;;14.75;90.95;99372.44;5054713;28;20033;-55
2022/06/04 02:18:06;;;;;;;10.60;6.40;;;;;;;14.88;89.97;99380.03;5036801;28;20463;-55
2022/06/04 02:20:31;;;;;;;8.82;6.90;;;;;;;14.82;90.60;99375.69;5071510;28;20035;-56
2022/06/04 02:22:57;;;;;;;8.57;6.80;;;;;;;14.87;90.27;99373.00;5049962;28;20017;-56
2022/06/04 02:25:22;;;;;;;10.25;6.15;;;;;;;14.92;89.53;99374.09;5066269;28;20383;-56
2022/06/04 02:27:50;;;;;;;10.23;6.60;;;;;;;14.77;90.92;99366.78;5052298;28;20025;-56
2022/06/04 02:30:16;;;;;;;10.55;7.03;;;;;;;14.84;90.17;99356.53;5053291;28;20377;-54
2022/06/04 02:33:00;;;;;;;8.98;5.95;;;;;;;14.83;89.73;99353.03;5052907;28;20119;-55
2022/06/04 02:35:34;;;;;;;9.25;6.10;;;;;;;14.71;88.77;99346.25;5064347;28;20044;-56
2022/06/04 02:38:10;;;;;;;11.15;6.18;;;;;;;14.66;89.53;99344.38;5070956;28;20222;-55
2022/06/04 02:40:54;;;;;;;8.93;6.18;;;;;;;14.66;90.17;99339.78;5064981;28;20043;-56
2022/06/04 02:43:36;;;;;;;11.13;6.43;;;;;;;14.67;90.28;99335.19;5025812;28;20048;-56
2022/06/04 02:46:04;;;;;;;8.38;6.50;;;;;;;14.66;90.08;99338.97;5067102;28;20839;-55
2022/06/04 02:48:38;;;;;;;8.40;6.20;;;;;;;14.45;91.00;99330.81;5070232;28;20116;-55
2022/06/04 02:51:07;;;;;;;9.48;6.65;;;;;;;14.41;91.56;99329.69;5022380;28;20032;-55
2022/06/04 02:53:32;;;;;;;10.70;6.60;;;;;;;14.38;91.96;99324.84;5068149;28;20592;-55
2022/06/04 02:56:10;;;;;;;12.40;6.60;;;;;;;14.43;90.92;99338.34;5025024;28;20025;-55
2022/06/04 02:58:36;;;;;;;10.02;6.80;;;;;;;14.33;91.80;99334.81;5049415;28;20165;-55
2022/06/04 03:01:02;;;;;;;9.63;6.68;;;;;;;14.18;93.15;99340.94;5033612;28;20475;-55
2022/06/04 03:03:27;;;;;;;11.55;8.05;;;;;;;14.14;93.26;99340.66;5028490;28;20090;-56
2022/06/04 03:05:58;;;;;;;10.52;9.00;;;;;;;14.21;92.67;99335.81;5057372;28;20033;-55
2022/06/04 03:08:23;;;;;;;;;;;;;;;14.23;92.11;99327.50;5037363;28;20118;-55
2022/06/04 03:10:49;;;;;;;13.38;9.77;;;;;;;14.28;91.64;99335.59;5039769;28;19916;-54
2022/06/04 03:13:14;;;;;;;17.58;8.95;;;;;;;14.33;90.75;99335.59;5050968;28;20098;-56
2022/06/04 03:15:40;;;;;;;13.18;8.10;;;;;;;14.36;91.09;99334.28;5051405;28;20309;-56
2022/06/04 03:18:05;;;;;;;12.32;8.35;;;;;;;14.50;90.07;99337.25;5051070;28;20025;-56
2022/06/04 03:20:31;;;;;;;13.98;8.73;;;;;;;14.55;88.84;99334.59;5050075;28;20037;-56
2022/06/04 03:22:56;;;;;;;12.98;7.93;;;;;;;14.54;88.74;99343.78;5052049;28;20029;-55
2022/06/04 03:25:22;;;;;;;12.27;7.78;;;;;;;14.45;88.92;99330.81;5050957;28;20495;-55
2022/06/04 03:27:47;;;;;;;16.70;7.13;;;;;;;14.46;87.94;99345.88;5051587;28;20032;-55
2022/06/04 03:30:13;;;;;;;9.88;6.90;;;;;;;14.19;90.04;99337.16;5021691;28;20464;-55
2022/06/04 03:32:38;;;;;;;15.68;7.43;;;;;;;14.12;90.79;99341.97;5049861;28;20032;-55
2022/06/04 03:35:04;;;;;;;8.73;6.97;;;;;;;14.25;90.18;99346.88;5056645;28;20063;-55
2022/06/04 03:37:30;;;;;;;11.20;6.93;;;;;;;14.32;89.08;99349.34;5045442;28;20028;-55
2022/06/04 03:39:55;;;;;;;16.20;6.93;;;;;;;14.45;88.48;99356.94;5049522;28;20020;-56
2022/06/04 03:42:21;;;;;;;16.10;6.07;;;;;;;14.81;87.21;99352.47;5043181;28;20033;-55
2022/06/04 03:44:49;;;;;;;9.32;6.07;;;;;;;14.90;86.04;99339.25;5050615;28;20115;-55
2022/06/04 03:47:16;;;;;;;16.25;7.53;;;;;;;14.66;87.19;99352.44;5031410;28;20032;-55
2022/06/04 03:49:42;;;;;;;14.38;7.82;;;;;;;14.46;88.55;99364.75;5053365;28;20071;-55
2022/06/04 03:52:07;;;;;;;12.93;7.95;;;;;;;14.37;89.26;99366.34;5050904;28;20104;-56
2022/06/04 04:00:01;;;;;;;13.02;8.93;;;;;;;14.48;89.88;99371.78;5050399;28;20036;-55
2022/06/04 04:02:29;;;;;;;14.90;9.43;;;;;;;14.56;88.45;99377.50;5050550;28;20033;-56
2022/06/04 04:04:54;;;;;;;16.17;9.50;;;;;;;14.56;88.70;99379.41;5048699;28;20459;-54
2022/06/04 04:07:20;;;;;;;11.93;9.10;;;;;;;14.58;88.90;99391.53;5054947;28;20082;-56
2022/06/04 04:09:45;;;;;;;15.20;8.82;;;;;;;14.66;88.58;99390.22;5044160;28;20024;-56
2022/06/04 04:12:10;;;;;;;11.77;9.20;;;;;;;14.73;88.85;99395.38;5070693;28;20029;-55
2022/06/04 04:14:36;;;;;;;11.35;8.43;;;;;;;14.96;87.48;99396.78;5068885;28;20032;-55
2022/06/04 04:17:01;;;;;;;9.63;7.88;;;;;;;15.34;84.73;99405.44;5069365;28;20028;-55
2022/06/04 04:19:29;;;;;;;11.18;8.05;;;;;;;15.27;84.43;99401.09;5068183;28;20020;-55
2022/06/04 04:21:55;;;;;;;13.52;6.82;;;;;;;14.99;85.48;99405.13;5061742;28;20036;-55
2022/06/04 04:24:20;;;;;;;11.27;7.82;;;;;;;14.68;88.57;99398.88;5066194;28;20025;-56
2022/06/04 04:26:46;;;;;;;12.48;8.85;;;;;;;14.88;87.56;99398.09;5065290;28;20141;-55
2022/06/04 04:29:11;;;;;;;14.77;9.52;;;;;;;14.95;86.14;99405.94;5068773;28;20029;-56
2022/06/04 04:31:37;;;;;;;12.88;9.35;;;;;;;15.28;83.83;99402.75;5038244;28;20028;-55
2022/06/04 04:34:03;;;;;;;21.42;9.30;;;;;;;15.90;81.99;99408.97;5066998;28;20067;-56
2022/06/04 04:36:30;;;;;;;11.85;9.20;;;;;;;15.73;81.63;99414.66;5035295;28;20040;-56
2022/06/04 04:38:59;;;;;;;9.93;6.63;;;;;;;16.22;79.57;99420.50;5049846;28;20442;-56
2022/06/04 04:41:24;;;;;;;11.55;8.65;;;;;;;15.89;80.92;99428.97;5069607;28;20039;-55
2022/06/04 04:43:49;;;;;;;12.75;9.18;;;;;;;16.72;76.98;99424.09;5029583;28;20024;-55
2022/06/04 04:46:15;;;;;;;14.95;8.55;;;;;;;18.49;70.11;99425.66;5045978;28;20020;-56
2022/06/04 04:48:41;;;;;;;10.77;6.53;;;;;;;19.38;66.18;99426.94;5059959;28;20040;-56
2022/06/04 04:51:14;;;;;;;10.85;6.10;;;;;;;20.77;61.06;99430.72;5052331;28;20476;-56
2022/06/04 04:53:39;;;;;;;10.50;5.70;;;;;;;20.15;63.42;99439.25;5066166;28;20062;-56
2022/06/04 04:56:05;;;;;;;10.73;6.30;;;;;;;20.74;61.78;99448.44;5068249;28;20419;-55
2022/06/04 04:58:31;;;;;;;8.05;5.18;;;;;;;20.84;61.20;99448.25;5068497;28;20374;-56
2022/06/04 05:00:56;;;;;;;11.70;5.50;;;;;;;20.06;63.07;99457.38;5063156;28;20070;-60
2022/06/04 05:03:21;;;;;;;11.75;5.82;;;;;;;19.73;64.57;99457.41;5069001;28;20032;-55
2022/06/04 05:05:59;;;;;;;13.25;6.07;;;;;;;19.34;66.28;99458.50;5068308;28;20025;-55
2022/06/04 05:08:24;;;;;;;9.98;5.90;;;;;;;18.87;68.13;99471.09;5063877;28;20052;-56
2022/06/04 05:10:49;;;;;;;12.30;6.03;;;;;;;18.60;69.35;99475.22;5040018;28;20480;-56
2022/06/04 05:13:15;;;;;;;10.02;5.95;;;;;;;18.72;69.10;99480.22;5068251;28;20058;-56
2022/06/04 05:15:40;;;;;;;20.02;6.50;;;;;;;18.66;69.74;99479.47;5055551;28;20032;-56
2022/06/04 05:18:06;;;;;;;8.65;5.75;;;;;;;19.24;68.96;99477.69;5067132;28;20028;-56
2022/06/04 05:20:31;;;;;;;10.77;6.15;;;;;;;19.46;67.50;99479.81;5036061;28;20025;-55
2022/06/04 05:22:57;;;;;;;9.65;6.30;;;;;;;19.18;68.67;99477.75;5048238;28;20032;-56
2022/06/04 05:25:22;;;;;;;9.48;5.70;;;;;;;18.80;70.35;99482.34;5068392;28;20082;-55
2022/06/04 05:27:48;;;;;;;10.18;5.85;;;;;;;18.46;71.59;99485.16;5054062;28;20025;-56
2022/06/04 05:30:13;;;;;;;13.02;6.10;;;;;;;18.63;71.68;99487.41;5069080;28;20028;-55
2022/06/04 05:32:39;;;;;;;10.25;6.55;;;;;;;19.26;69.88;99483.63;5068039;28;20028;-56
2022/06/04 05:35:04;;;;;;;14.50;6.75;;;;;;;20.28;65.36;99487.44;5066752;28;20040;-55
2022/06/04 05:37:30;;;;;;;7.22;5.80;;;;;;;20.45;65.27;99478.69;5049101;28;20028;-56
2022/06/04 05:39:56;;;;;;;14.80;6.03;;;;;;;20.75;64.32;99482.75;5064436;28;20035;-56
2022/06/04 05:42:21;;;;;;;8.45;6.20;;;;;;;20.23;66.21;99479.38;5064363;28;20130;-56
2022/06/04 05:44:47;;;;;;;9.95;5.90;;;;;;;19.50;67.84;99484.38;5065579;28;20066;-56
2022/06/04 05:47:12;;;;;;;14.85;6.10;;;;;;;19.98;66.13;99484.16;5065706;28;20020;-56
2022/06/04 05:49:38;;;;;;;10.07;6.40;;;;;;;19.82;65.76;99480.09;5067401;28;20032;-55
2022/06/04 05:52:03;;;;;;;9.50;5.97;;;;;;;19.88;67.44;99486.25;5068618;28;20028;-55
2022/06/04 05:54:29;;;;;;;11.02;5.93;;;;;;;19.75;68.19;99474.22;5067160;28;20428;-56
2022/06/04 05:56:54;;;;;;;8.30;5.85;;;;;;;19.40;68.59;99477.16;5067004;28;20039;-56
2022/06/04 05:59:21;;;;;;;7.68;6.03;;;;;;;19.29;69.00;99472.97;5067194;28;20028;-55
2022/06/04 06:01:47;;;;;;;12.20;7.07;;;;;;;19.33;67.00;99478.63;5067405;28;20498;-56
2022/06/04 06:04:14;;;;;;;11.32;6.93;;;;;;;19.63;65.61;99482.00;5059971;28;20032;-56
2022/06/04 06:06:41;;;;;;;9.50;7.20;;;;;;;19.79;65.28;99486.09;5067314;28;20024;-55
2022/06/04 06:09:09;;;;;;;18.23;7.15;;;;;;;19.10;66.89;99483.84;5063977;28;20024;-55
2022/06/04 06:11:34;;;;;;;8.15;7.22;;;;;;;19.49;66.43;99477.28;5065561;28;20622;-55
2022/06/04 06:14:00;;;;;;;8.45;6.22;;;;;;;19.74;66.22;99486.19;5066321;28;20055;-55
2022/06/04 06:16:27;;;;;;;9.70;6.82;;;;;;;19.26;67.84;99478.19;5038074;28;20036;-55
2022/06/04 06:18:54;;;;;;;11.25;7.10;;;;;;;18.83;69.77;99481.75;5038383;28;20032;-55
2022/06/04 06:21:21;;;;;;;15.20;7.05;;;;;;;19.33;68.43;99473.22;5066356;28;20435;-56
2022/06/04 06:23:47;;;;;;;13.02;6.75;;;;;;;19.77;66.55;99477.47;5067026;28;20043;-54
2022/06/04 06:26:15;;;;;;;8.95;7.30;;;;;;;19.16;69.10;99481.88;5066549;28;20549;-55
2022/06/04 06:28:40;;;;;;;9.98;7.28;;;;;;;19.16;69.41;99476.44;5065219;28;20032;-55
2022/06/04 06:31:06;;;;;;;11.25;7.35;;;;;;;19.17;70.08;99480.78;5067249;28;20103;-55
2022/06/04 06:33:32;;;;;;;13.40;7.43;;;;;;;19.42;67.03;99470.63;5058519;28;20020;-54
2022/06/04 06:35:58;;;;;;;17.08;8.15;;;;;;;18.66;70.18;99484.91;5060407;28;20021;-56
2022/06/04 06:38:24;;;;;;;10.05;7.30;;;;;;;18.45;68.59;99475.41;5064108;28;20654;-55
2022/06/04 06:40:49;;;;;;;9.25;7.72;;;;;;;18.26;68.30;99480.75;5066222;28;20033;-55
2022/06/04 06:43:15;;;;;;;11.43;7.82;;;;;;;18.21;68.24;99480.78;5060308;28;20379;-56
2022/06/04 06:45:41;;;;;;;11.75;8.18;;;;;;;18.14;67.91;99481.13;5067658;28;20029;-55
2022/06/04 06:48:07;;;;;;;13.30;8.50;;;;;;;17.98;68.64;99482.38;5067139;28;20059;-55
2022/06/04 06:50:33;;;;;;;11.45;7.80;;;;;;;17.87;68.88;99490.59;5063538;28;20115;-55
2022/06/04 06:52:59;;;;;;;11.98;8.05;;;;;;;18.18;68.96;99481.38;5062858;28;20079;-55
2022/06/04 06:55:25;;;;;;;11.43;8.65;;;;;;;18.46;68.43;99487.84;5062547;28;20538;-55
2022/06/04 06:57:50;;;;;;;9.40;8.13;;;;;;;18.51;68.30;99485.09;5068541;28;20434;-56
2022/06/04 07:00:16;;;;;;;12.57;9.05;;;;;;;18.42;68.63;99493.06;5065584;28;20040;-55
2022/06/04 07:02:41;;;;;;;12.93;8.35;;;;;;;18.78;66.77;99489.16;5070968;28;20036;-56
2022/06/04 07:05:08;;;;;;;15.75;8.52;;;;;;;18.89;67.12;99490.63;5068255;28;20036;-55
2022/06/04 07:07:33;;;;;;;9.88;8.00;;;;;;;18.86;67.78;99488.50;5068103;28;20072;-55
2022/06/04 07:09:59;;;;;;;11.98;8.70;;;;;;;18.73;68.09;99482.66;5071793;28;20407;-54
2022/06/04 07:12:24;;;;;;;13.98;8.13;;;;;;;19.00;67.48;99485.91;5069748;28;20447;-55
2022/06/04 07:14:50;;;;;;;14.93;8.40;;;;;;;19.50;66.05;99484.38;5069336;28;20490;-55
2022/06/04 07:17:15;;;;;;;9.38;7.68;;;;;;;19.71;64.68;99492.22;5044593;28;20025;-56
2022/06/04 07:19:41;;;;;;;8.73;6.75;;;;;;;20.12;64.67;99502.41;5051659;28;20094;-54
2022/06/04 07:22:06;;;;;;;13.13;8.40;;;;;;;19.61;65.99;99496.69;5068852;28;20475;-55
2022/06/04 07:24:32;;;;;;;12.35;8.30;;;;;;;19.42;65.74;99495.91;5070168;28;20437;-55
2022/06/04 07:26:57;;;;;;;12.65;7.95;;;;;;;19.61;65.47;99504.84;5065949;28;20017;-55
2022/06/04 07:29:23;;;;;;;11.30;7.60;;;;;;;20.04;63.77;99515.63;5064969;28;20051;-55
2022/06/04 07:31:48;;;;;;;12.88;7.40;;;;;;;20.70;63.16;99515.53;5069848;28;20028;-55
2022/06/04 07:34:14;;;;;;;9.13;7.53;;;;;;;21.98;58.24;99515.44;5069350;28;20028;-54
2022/06/04 07:36:41;;;;;;;11.88;7.30;;;;;;;22.58;56.89;99517.72;5051891;28;20377;-54
2022/06/04 07:39:07;;;;;;;13.45;7.30;;;;;;;23.92;53.76;99522.78;5069871;28;20126;-53
2022/06/04 07:41:40;;;;;;;11.07;6.32;;;;;;;25.99;47.54;99524.78;5069031;28;20107;-55
2022/06/04 07:44:06;;;;;;;10.80;6.63;;;;;;;26.29;46.71;99529.31;5065187;28;20027;-55
2022/06/04 07:46:32;;;;;;;10.00;5.90;;;;;;;25.30;48.82;99528.06;5069445;28;20431;-54
2022/06/04 07:49:00;;;;;;;10.10;6.05;;;;;;;23.46;53.43;99513.25;5050294;28;20029;-54
2022/06/04 07:51:26;;;;;;;8.27;6.75;;;;;;;22.30;57.41;99511.66;5066090;28;20090;-55
2022/06/04 07:53:51;;;;;;;13.38;8.10;;;;;;;21.58;60.45;99525.41;5044753;28;20033;-54
2022/06/04 07:56:17;;;;;;;15.57;7.80;;;;;;;22.96;56.08;99521.84;5061254;28;20086;-54
2022/06/04 07:58:43;;;;;;;11.35;6.95;;;;;;;22.97;54.27;99521.56;5068152;28;20078;-54
2022/06/04 08:01:09;;;;;;;12.13;7.20;;;;;;;22.44;56.76;99533.41;5069501;28;20120;-55
2022/06/04 08:03:35;;;;;;;11.18;7.22;;;;;;;21.95;59.00;99529.72;5050108;28;20078;-53
2022/06/04 08:06:01;;;;;;;19.08;7.68;;;;;;;21.95;58.10;99527.78;5068622;28;20021;-54
2022/06/04 08:08:27;;;;;;;10.05;7.35;;;;;;;22.28;58.13;99530.25;5067953;28;20392;-54
2022/06/04 08:10:52;;;;;;;10.02;6.47;;;;;;;23.37;55.59;99532.41;5069737;28;20071;-53
2022/06/04 08:13:23;;;;;;;10.07;6.60;;;;;;;23.37;55.09;99543.34;5068363;28;20355;-54
2022/06/04 08:15:48;;;;;;;10.25;6.88;;;;;;;23.87;54.39;99548.38;5067794;28;20032;-55
2022/06/04 08:18:14;;;;;;;10.45;6.57;;;;;;;24.45;52.91;99543.47;5062043;28;20431;-55
2022/06/04 08:20:43;;;;;;;8.95;6.90;;;;;;;23.73;54.12;99539.53;5067494;28;20066;-54
2022/06/04 08:23:09;;;;;;;8.47;6.90;;;;;;;23.35;55.52;99542.88;5043545;28;20020;-54
2022/06/04 08:25:40;;;;;;;11.35;7.05;;;;;;;22.91;56.78;99536.47;5050918;28;20400;-55
2022/06/04 08:28:06;;;;;;;10.02;7.07;;;;;;;23.55;55.69;99537.91;5067611;28;20051;-53
2022/06/04 08:30:31;;;;;;;7.85;6.75;;;;;;;23.62;55.73;99544.50;5065834;28;20032;-52
2022/06/04 08:32:56;;;;;;;9.73;6.90;;;;;;;23.58;55.32;99540.78;5064836;28;20074;-55
2022/06/04 08:35:22;;;;;;;13.25;7.38;;;;;;;24.19;53.62;99546.25;5063692;28;20459;-54
2022/06/04 08:37:47;;;;;;;8.30;6.82;;;;;;;25.01;52.33;99543.41;5067084;28;20032;-54
2022/06/04 08:40:31;;;;;;;13.10;6.63;;;;;;;25.54;50.85;99552.91;5067199;28;20017;-55
2022/06/04 08:43:08;;;;;;;7.97;6.60;;;;;;;23.98;54.94;99550.78;5068175;28;20086;-54
2022/06/04 08:45:36;;;;;;;9.48;7.80;;;;;;;22.79;58.04;99549.94;5067905;28;20026;-54
2022/06/04 08:48:01;;;;;;;8.60;7.28;;;;;;;22.47;59.64;99548.34;5036624;28;20132;-54
2022/06/04 08:50:30;;;;;;;9.50;6.97;;;;;;;22.76;58.98;99550.56;5047344;28;20031;-55
2022/06/04 08:52:59;;;;;;;11.23;7.25;;;;;;;22.21;61.03;99553.66;5026770;28;20433;-54
2022/06/04 08:58:38;;;;;;;8.68;7.78;;;;;;;22.78;59.75;99559.25;5045666;28;20090;-54
2022/06/04 09:01:15;;;;;;;9.98;7.93;;;;;;;23.60;57.03;99554.16;5067892;28;20082;-54
2022/06/04 09:03:59;;;;;;;10.73;6.72;;;;;;;23.92;56.66;99552.09;5050147;28;20034;-54
2022/06/04 09:07:09;;;;;;;14.43;7.20;;;;;;;23.74;56.65;99552.09;5068538;28;20116;-55
2022/06/04 09:09:41;;;;;;;10.65;7.35;;;;;;;24.03;56.75;99565.09;5026002;28;20048;-53
2022/06/04 09:12:26;;;;;;;10.23;7.35;;;;;;;24.28;55.56;99563.44;5049655;28;20020;-54
2022/06/04 09:14:58;;;;;;;8.88;7.32;;;;;;;24.80;55.06;99567.19;5048126;28;20025;-54
2022/06/04 09:17:33;;;;;;;8.68;7.05;;;;;;;25.07;53.59;99569.47;5068059;28;20505;-56
2022/06/04 09:19:59;;;;;;;10.48;7.50;;;;;;;24.50;55.04;99567.94;5037552;28;20036;-55
2022/06/04 09:22:39;;;;;;;9.05;6.57;;;;;;;25.56;52.98;99574.50;5064356;28;20028;-55
2022/06/04 09:25:06;;;;;;;9.15;6.50;;;;;;;26.39;51.32;99562.66;5045903;28;20102;-54
2022/06/04 09:28:06;;;;;;;20.50;7.35;;;;;;;25.81;51.33;99570.78;5069026;28;20090;-54
2022/06/04 09:30:39;;;;;;;11.73;7.07;;;;;;;25.39;53.25;99586.44;5066102;28;20028;-54
2022/06/04 09:33:34;;;;;;;9.00;6.57;;;;;;;24.81;53.60;99580.59;5066503;28;20040;-54
2022/06/04 09:35:59;;;;;;;7.63;5.70;;;;;;;25.83;51.28;99581.41;5032741;28;20629;-57
2022/06/04 09:38:27;;;;;;;8.38;6.50;;;;;;;25.59;52.20;99585.66;5068541;28;20383;-54
2022/06/04 09:41:18;;;;;;;9.75;6.82;;;;;;;23.24;58.52;99567.00;5068054;28;20024;-55
2022/06/04 09:43:44;;;;;;;12.05;6.78;;;;;;;25.22;53.22;99570.88;5064929;28;20071;-55
2022/06/04 09:46:10;;;;;;;8.20;6.13;;;;;;;25.78;51.56;99573.38;5062228;28;20039;-55
2022/06/04 09:48:37;;;;;;;9.10;5.72;;;;;;;26.65;50.22;99564.31;5046051;28;20029;-56
2022/06/04 09:51:22;;;;;;;16.25;6.47;;;;;;;26.78;49.84;99574.19;5045563;28;20024;-56
2022/06/04 09:53:50;;;;;;;9.05;6.30;;;;;;;25.51;52.01;99570.06;5049826;28;20035;-55
2022/06/04 09:56:26;;;;;;;9.05;5.90;;;;;;;25.49;53.09;99561.34;5045293;28;20044;-57
2022/06/04 09:58:51;;;;;;;10.20;5.70;;;;;;;27.06;49.74;99560.56;5036118;28;20414;-56
2022/06/04 10:01:16;;;;;;;8.85;5.85;;;;;;;26.66;50.39;99554.94;5050507;28;20169;-57
2022/06/04 10:03:42;;;;;;;11.05;6.03;;;;;;;28.15;47.08;99563.41;5067147;28;20035;-55
2022/06/04 10:06:09;;;;;;;7.40;5.32;;;;;;;25.94;50.78;99568.91;5067047;28;20033;-55
2022/06/04 10:11:22;;;;;;;8.80;5.38;;;;;;;25.83;51.65;99559.44;5068301;28;20060;-55
2022/06/04 10:13:49;;;;;;;9.35;5.57;;;;;;;25.44;51.98;99561.53;5049865;28;20028;-55
2022/06/04 10:16:33;;;;;;;12.40;4.95;;;;;;;27.21;48.73;99559.09;5061206;28;20036;-55
2022/06/04 10:19:01;;;;;;;8.75;5.75;;;;;;;24.69;54.49;99567.56;5064948;28;20039;-56
2022/06/04 10:21:32;;;;;;;7.28;5.50;;;;;;;25.07;53.88;99564.00;5065801;28;20084;-54
2022/06/04 10:23:58;;;;;;;8.90;4.80;;;;;;;25.92;50.98;99562.16;5067661;28;20033;-55
2022/06/04 10:26:32;;;;;;;6.13;4.20;;;;;;;27.17;47.83;99563.66;5043275;28;20042;-55
2022/06/04 10:29:38;;;;;;;4.60;3.78;;;;;;;25.79;49.73;99561.28;5043951;28;20075;-55
2022/06/04 10:32:26;;;;;;;9.02;3.80;;;;;;;25.46;50.36;99575.75;5004492;28;20045;-55
2022/06/04 10:35:02;;;;;;;7.15;3.55;;;;;;;26.02;48.67;99572.72;5054656;28;20352;-54
2022/06/04 10:37:56;;;;;;;8.20;4.38;;;;;;;26.05;48.90;99577.53;5053437;28;20111;-55
2022/06/04 10:40:41;;;;;;;8.70;4.10;;;;;;;26.67;48.53;99567.53;5070705;28;20056;-54
2022/06/04 10:43:25;;;;;;;6.13;4.10;;;;;;;26.29;48.01;99576.03;5071182;28;20025;-54
2022/06/04 10:45:55;;;;;;;7.45;3.58;;;;;;;25.10;49.70;99585.25;5038612;28;20479;-53
2022/06/04 10:48:31;;;;;;;8.65;4.13;;;;;;;26.95;46.94;99577.88;5054374;28;20029;-54
2022/06/04 10:54:05;;;;;;;4.75;3.88;;;;;;;26.23;47.57;99586.41;5066402;28;20536;-55
2022/06/04 10:56:56;;;;;;;6.82;3.50;;;;;;;27.19;46.64;99577.91;5055235;28;20123;-55
2022/06/04 10:59:32;;;;;;;5.38;3.85;;;;;;;27.15;45.42;99576.94;5058155;28;20402;-54
2022/06/04 11:02:14;;;;;;;5.30;3.50;;;;;;;25.89;48.64;99577.38;5063204;28;20089;-55
2022/06/04 11:04:45;;;;;;;5.47;3.40;;;;;;;26.60;46.91;99572.78;5033130;28;20029;-55
2022/06/04 11:07:29;;;;;;;4.88;3.30;;;;;;;25.02;49.58;99566.94;5047545;28;20045;-55
2022/06/04 11:09:54;;;;;;;5.28;3.25;;;;;;;26.38;46.57;99558.28;5064582;28;20048;-55
2022/06/04 11:12:30;;;;;;;7.60;3.97;;;;;;;26.21;46.31;99559.28;5069576;28;20032;-57
2022/06/04 11:14:57;;;;;;;7.20;3.70;;;;;;;24.86;49.24;99557.66;5069661;28;20061;-52
2022/06/04 11:17:46;;;;;;;6.53;3.47;;;;;;;27.85;43.76;99553.91;5025914;28;20027;-55
2022/06/04 11:20:22;;;;;;;5.93;3.63;;;;;;;28.33;42.38;99552.06;5037031;28;20095;-55
2022/06/04 11:22:56;;;;;;;4.55;2.90;;;;;;;26.33;46.08;99552.22;5049322;28;20060;-55
2022/06/04 11:25:27;;;;;;;4.25;2.97;;;;;;;25.80;46.96;99549.94;5035864;28;20028;-55
2022/06/04 11:28:21;;;;;;;3.88;3.00;;;;;;;25.14;48.72;99549.78;5031366;28;20031;-55
2022/06/04 11:31:20;;;;;;;5.00;3.25;;;;;;;26.77;45.49;99539.59;5051678;28;20037;-54
2022/06/04 11:33:46;;;;;;;6.47;3.63;;;;;;;26.48;46.92;99540.56;5069142;28;20025;-55
2022/06/04 11:36:27;;;;;;;8.27;3.67;;;;;;;25.85;49.18;99554.47;5067254;28;20040;-55
2022/06/04 11:39:10;;;;;;;4.88;3.63;;;;;;;25.23;50.03;99549.75;5043274;28;20042;-55
2022/06/04 11:41:49;;;;;;;7.22;3.90;;;;;;;25.38;49.75;99549.94;5041607;28;20115;-54
2022/06/04 11:44:26;;;;;;;5.15;3.20;;;;;;;26.59;47.94;99543.72;5049728;28;20025;-55
2022/06/04 11:47:01;;;;;;;4.47;3.03;;;;;;;26.72;45.96;99553.56;5070618;28;20033;-56
2022/06/04 11:49:55;;;;;;;5.72;3.28;;;;;;;26.25;46.99;99546.47;5063919;28;21752;-55
2022/06/04 11:52:33;;;;;;;5.47;3.10;;;;;;;27.78;43.63;99548.16;5059723;28;20043;-54
2022/06/04 11:55:48;;;;;;;5.50;3.20;;;;;;;26.85;44.71;99546.91;5068673;28;20024;-55
2022/06/04 11:58:23;;;;;;;3.95;2.78;;;;;;;27.52;43.20;99552.16;4982358;28;20461;-56
2022/06/04 12:00:48;;;;;;;6.07;3.50;;;;;;;26.88;44.60;99549.00;5064926;28;20043;-60
2022/06/04 12:03:28;;;;;;;5.13;3.08;;;;;;;25.63;46.69;99543.81;5067163;28;20052;-56
2022/06/04 12:05:56;;;;;;;4.13;2.90;;;;;;;26.63;44.79;99545.44;5067833;28;20665;-56
2022/06/04 12:08:24;;;;;;;4.78;3.10;;;;;;;26.61;44.78;99541.41;5068864;28;20044;-55